createdAt,value
2022-08-22T00:01:54.947Z,0.00
2022-08-22T00:04:44.147Z,0.00
2022-08-22T00:07:38.867Z,0.00
2022-08-22T00:10:23.592Z,0.00
2022-08-22T00:13:07.690Z,0.00
2022-08-22T00:15:44.251Z,0.00
2022-08-22T00:18:20.469Z,0.00
2022-08-22T00:21:01.278Z,0.00
2022-08-22T00:23:30.672Z,0.00
2022-08-22T00:26:16.682Z,0.00
2022-08-22T00:28:52.320Z,0.00
2022-08-22T00:31:27.198Z,0.00
2022-08-22T00:34:05.684Z,0.00
2022-08-22T00:37:11.261Z,0.00
2022-08-22T00:40:03.863Z,0.00
2022-08-22T00:42:47.109Z,0.00
2022-08-22T00:45:54.902Z,0.00
2022-08-22T00:48:34.911Z,0.00
2022-08-22T00:51:13.865Z,0.00
2022-08-22T00:53:47.069Z,0.00
2022-08-22T00:56:54.752Z,0.00
2022-08-22T01:00:00.193Z,0.00
2022-08-22T01:02:32.589Z,0.00
2022-08-22T01:05:23.800Z,0.00
2022-08-22T01:07:59.324Z,0.00
2022-08-22T01:10:50.692Z,0.00
2022-08-22T01:13:36.752Z,0.00
2022-08-22T01:16:18.043Z,0.00
2022-08-22T01:19:22.390Z,0.00
2022-08-22T01:22:03.011Z,0.00
2022-08-22T01:25:07.932Z,0.00
2022-08-22T01:27:58.804Z,0.00
2022-08-22T01:30:42.022Z,0.00
2022-08-22T01:33:57.804Z,0.00
2022-08-22T01:36:58.316Z,0.00
2022-08-22T01:40:06.908Z,0.00
2022-08-22T01:42:56.112Z,0.00
2022-08-22T01:45:41.593Z,0.00
2022-08-22T01:48:27.132Z,0.00
2022-08-22T01:50:58.002Z,0.00
2022-08-22T01:53:48.198Z,0.00
2022-08-22T01:56:15.263Z,0.00
2022-08-22T01:59:05.743Z,0.00
2022-08-22T02:01:43.862Z,0.00
2022-08-22T02:04:28.818Z,0.00
2022-08-22T02:07:17.921Z,0.00
2022-08-22T02:09:59.654Z,0.00
2022-08-22T02:12:45.100Z,0.00
2022-08-22T02:15:14.797Z,0.00
2022-08-22T02:18:12.451Z,0.00
2022-08-22T02:20:48.229Z,0.00
2022-08-22T02:23:40.968Z,0.00
2022-08-22T02:26:13.067Z,0.00
2022-08-22T02:28:57.168Z,0.00
2022-08-22T02:31:36.880Z,0.00
2022-08-22T02:34:34.493Z,0.00
2022-08-22T02:37:07.545Z,0.00
2022-08-22T02:39:52.988Z,0.00
2022-08-22T02:42:44.710Z,0.00
2022-08-22T02:45:57.336Z,0.00
2022-08-22T02:48:39.616Z,0.00
2022-08-22T02:51:28.168Z,0.00
2022-08-22T02:54:10.656Z,0.00
2022-08-22T02:57:00.822Z,0.00
2022-08-22T02:59:34.658Z,0.00
2022-08-22T03:02:27.690Z,0.00
2022-08-22T03:05:01.653Z,0.00
2022-08-22T03:07:41.031Z,0.00
2022-08-22T03:10:25.871Z,0.00
2022-08-22T03:13:15.964Z,0.00
2022-08-22T03:16:03.770Z,0.00
2022-08-22T03:18:48.616Z,0.00
2022-08-22T03:21:29.377Z,0.00
2022-08-22T03:24:20.122Z,0.00
2022-08-22T03:26:58.122Z,0.00
2022-08-22T03:29:36.546Z,0.00
2022-08-22T03:32:28.719Z,0.00
2022-08-22T03:34:59.755Z,0.00
2022-08-22T03:37:35.683Z,0.00
2022-08-22T03:40:19.592Z,0.00
2022-08-22T03:42:52.357Z,0.00
2022-08-22T03:45:25.349Z,0.00
2022-08-22T03:48:12.540Z,0.00
2022-08-22T03:51:18.262Z,0.00
2022-08-22T03:54:21.917Z,0.00
2022-08-22T03:57:13.315Z,0.00
2022-08-22T04:00:06.787Z,0.00
2022-08-22T04:02:44.273Z,0.00
2022-08-22T04:05:58.311Z,0.00
2022-08-22T04:08:43.812Z,0.00
2022-08-22T04:11:38.384Z,0.00
2022-08-22T04:14:30.929Z,0.00
2022-08-22T04:17:00.715Z,0.00
2022-08-22T04:19:45.909Z,0.00
2022-08-22T04:22:47.984Z,0.00
2022-08-22T04:25:23.471Z,0.00
2022-08-22T04:27:58.064Z,0.00
2022-08-22T04:30:41.751Z,0.00
2022-08-22T04:33:24.465Z,0.00
2022-08-22T04:36:36.082Z,0.00
2022-08-22T04:39:10.209Z,0.00
2022-08-22T04:42:16.270Z,0.00
2022-08-22T04:45:12.637Z,0.00
2022-08-22T04:47:54.159Z,0.00
2022-08-22T04:50:30.175Z,0.00
2022-08-22T04:53:41.387Z,0.00
2022-08-22T04:56:15.322Z,0.00
2022-08-22T04:58:51.378Z,0.00
2022-08-22T05:01:18.590Z,0.00
2022-08-22T05:04:02.368Z,0.00
2022-08-22T05:06:32.976Z,0.00
2022-08-22T05:09:05.793Z,0.00
2022-08-22T05:11:34.793Z,0.00
2022-08-22T05:14:08.417Z,0.00
2022-08-22T05:16:41.145Z,0.00
2022-08-22T05:19:23.026Z,0.00
2022-08-22T05:21:55.505Z,0.00
2022-08-22T05:24:35.897Z,0.00
2022-08-22T05:27:22.935Z,0.00
2022-08-22T05:29:55.019Z,0.00
2022-08-22T05:32:27.181Z,0.00
2022-08-22T05:34:59.377Z,0.00
2022-08-22T05:37:38.465Z,0.00
2022-08-22T05:40:07.297Z,0.00
2022-08-22T05:42:37.277Z,0.00
2022-08-22T05:45:12.206Z,0.00
2022-08-22T05:47:52.470Z,0.00
2022-08-22T05:50:37.919Z,0.00
2022-08-22T05:53:41.588Z,0.00
2022-08-22T05:56:26.495Z,0.00
2022-08-22T05:59:00.152Z,0.00
2022-08-22T06:01:43.134Z,0.00
2022-08-22T06:04:31.894Z,0.00
2022-08-22T06:07:08.482Z,0.00
2022-08-22T06:09:44.448Z,0.00
2022-08-22T06:12:37.864Z,0.00
2022-08-22T06:15:23.140Z,0.00
2022-08-22T06:18:07.385Z,0.00
2022-08-22T06:20:43.376Z,0.00
2022-08-22T06:23:20.418Z,0.00
2022-08-22T06:25:49.742Z,0.00
2022-08-22T06:28:24.597Z,0.00
2022-08-22T06:30:54.906Z,0.00
2022-08-22T06:33:29.172Z,0.00
2022-08-22T06:36:27.558Z,0.00
2022-08-22T06:39:16.563Z,0.00
2022-08-22T06:41:50.219Z,0.00
2022-08-22T06:44:22.116Z,0.00
2022-08-22T06:46:52.526Z,0.00
2022-08-22T06:49:22.142Z,0.00
2022-08-22T06:51:50.537Z,0.00
2022-08-22T06:54:24.758Z,0.00
2022-08-22T06:56:54.246Z,0.00
2022-08-22T06:59:29.021Z,0.00
2022-08-22T07:02:21.068Z,0.00
2022-08-22T07:04:49.952Z,0.00
2022-08-22T07:07:19.940Z,0.00
2022-08-22T07:09:55.264Z,0.00
2022-08-22T07:12:26.860Z,0.07
2022-08-22T07:14:58.961Z,0.00
2022-08-22T07:17:29.864Z,0.00
2022-08-22T07:20:05.761Z,0.10
2022-08-22T07:22:37.457Z,0.10
2022-08-22T07:25:12.059Z,0.10
2022-08-22T07:28:04.106Z,0.10
2022-08-22T07:30:54.035Z,0.10
2022-08-22T07:33:45.045Z,0.10
2022-08-22T07:36:31.956Z,0.10
2022-08-22T07:39:16.481Z,0.20
2022-08-22T07:42:10.744Z,0.10
2022-08-22T07:45:00.567Z,0.20
2022-08-22T07:47:55.288Z,0.20
2022-08-22T07:50:28.084Z,0.20
2022-08-22T07:53:02.388Z,0.30
2022-08-22T07:55:29.612Z,0.30
2022-08-22T07:58:04.482Z,0.23
2022-08-22T08:00:32.406Z,0.30
2022-08-22T08:03:04.234Z,0.27
2022-08-22T08:05:34.467Z,0.20
2022-08-22T08:08:06.773Z,0.30
2022-08-22T08:10:36.865Z,0.27
2022-08-22T08:13:08.642Z,0.30
2022-08-22T08:15:37.427Z,0.20
2022-08-22T08:18:08.919Z,0.20
2022-08-22T08:20:37.448Z,0.30
2022-08-22T08:23:09.217Z,0.30
2022-08-22T08:25:53.395Z,0.30
2022-08-22T08:28:37.663Z,0.20
2022-08-22T08:31:09.656Z,0.20
2022-08-22T08:33:40.773Z,0.27
2022-08-22T08:36:32.450Z,0.20
2022-08-22T08:39:16.685Z,0.20
2022-08-22T08:42:01.899Z,0.20
2022-08-22T08:45:10.459Z,0.20
2022-08-22T08:48:09.785Z,0.20
2022-08-22T08:51:16.059Z,0.20
2022-08-22T08:54:15.816Z,0.20
2022-08-22T08:57:20.651Z,0.30
2022-08-22T09:00:14.625Z,0.20
2022-08-22T09:03:15.644Z,0.20
2022-08-22T09:06:11.146Z,0.20
2022-08-22T09:09:11.671Z,0.20
2022-08-22T09:12:02.412Z,0.20
2022-08-22T09:14:32.372Z,0.20
2022-08-22T09:17:32.050Z,0.20
2022-08-22T09:20:20.403Z,0.20
2022-08-22T09:22:53.146Z,0.30
2022-08-22T09:25:59.689Z,0.30
2022-08-22T09:28:30.119Z,0.30
2022-08-22T09:31:47.492Z,0.30
2022-08-22T09:34:34.103Z,0.30
2022-08-22T09:37:27.341Z,0.30
2022-08-22T09:40:29.676Z,0.30
2022-08-22T09:43:08.705Z,0.30
2022-08-22T09:45:50.233Z,0.30
2022-08-22T09:48:47.507Z,0.30
2022-08-22T09:51:32.191Z,0.30
2022-08-22T09:54:12.429Z,0.30
2022-08-22T09:56:46.568Z,0.30
2022-08-22T09:59:42.867Z,0.30
2022-08-22T10:02:24.757Z,0.20
2022-08-22T10:04:57.193Z,0.20
2022-08-22T10:07:39.818Z,0.20
2022-08-22T10:10:26.216Z,0.20
2022-08-22T10:13:14.021Z,0.20
2022-08-22T10:16:09.186Z,0.23
2022-08-22T10:18:53.804Z,0.20
2022-08-22T10:21:30.842Z,0.30
2022-08-22T10:24:04.043Z,0.20
2022-08-22T10:26:48.333Z,0.20
2022-08-22T10:29:33.974Z,0.20
2022-08-22T10:32:13.930Z,0.20
2022-08-22T10:34:48.599Z,0.30
2022-08-22T10:37:23.769Z,0.20
2022-08-22T10:39:56.789Z,0.30
2022-08-22T10:42:35.385Z,0.20
2022-08-22T10:45:12.879Z,0.20
2022-08-22T10:47:58.839Z,0.20
2022-08-22T10:50:31.158Z,0.20
2022-08-22T10:53:34.814Z,0.27
2022-08-22T10:56:16.053Z,0.27
2022-08-22T10:59:02.379Z,0.30
2022-08-22T11:01:42.055Z,0.30
2022-08-22T11:04:14.945Z,0.30
2022-08-22T11:06:52.491Z,0.27
2022-08-22T11:09:25.334Z,0.30
2022-08-22T11:12:03.195Z,0.30
2022-08-22T11:15:05.434Z,0.30
2022-08-22T11:17:54.413Z,0.30
2022-08-22T11:20:59.189Z,0.30
2022-08-22T11:23:32.401Z,0.20
2022-08-22T11:26:33.660Z,0.30
2022-08-22T11:30:02.156Z,0.30
2022-08-22T11:32:38.060Z,0.20
2022-08-22T11:35:16.401Z,0.20
2022-08-22T11:37:59.837Z,0.20
2022-08-22T11:40:52.785Z,0.20
2022-08-22T11:43:37.468Z,0.20
2022-08-22T11:46:20.373Z,0.20
2022-08-22T11:49:13.391Z,0.20
2022-08-22T11:51:58.672Z,0.13
2022-08-22T11:54:52.587Z,0.20
2022-08-22T11:57:37.162Z,0.13
2022-08-22T12:00:26.509Z,0.20
2022-08-22T12:03:32.685Z,0.13
2022-08-22T12:06:06.203Z,0.20
2022-08-22T12:08:35.379Z,0.20
2022-08-22T12:11:27.379Z,0.10
2022-08-22T12:14:02.307Z,0.10
2022-08-22T12:17:55.027Z,0.10
2022-08-22T12:20:45.977Z,0.10
2022-08-22T12:23:43.648Z,0.10
2022-08-22T12:26:45.207Z,0.10
2022-08-22T12:29:39.939Z,0.10
2022-08-22T12:32:43.828Z,0.10
2022-08-22T12:35:34.965Z,0.10
2022-08-22T12:38:28.947Z,0.10
2022-08-22T12:41:09.005Z,0.10
2022-08-22T12:43:44.657Z,0.10
2022-08-22T12:46:36.130Z,0.10
2022-08-22T12:49:44.951Z,0.10
2022-08-22T12:52:35.279Z,0.00
2022-08-22T12:55:17.754Z,0.00
2022-08-22T12:58:15.343Z,0.00
2022-08-22T13:00:47.440Z,0.00
2022-08-22T13:03:37.238Z,0.00
2022-08-22T13:06:36.313Z,0.00
2022-08-22T13:09:19.771Z,0.10
2022-08-22T13:12:02.448Z,0.03
2022-08-22T13:14:34.004Z,0.00
2022-08-22T13:17:23.685Z,0.10
2022-08-22T13:20:10.794Z,0.10
2022-08-22T13:22:45.627Z,0.00
2022-08-22T13:25:25.622Z,0.00
2022-08-22T13:28:02.385Z,0.10
2022-08-22T13:30:40.059Z,0.10
2022-08-22T13:33:25.851Z,0.10
2022-08-22T13:36:04.688Z,0.10
2022-08-22T13:39:00.295Z,0.10
2022-08-22T13:41:31.735Z,0.10
2022-08-22T13:44:07.284Z,0.00
2022-08-22T13:46:48.197Z,0.07
2022-08-22T13:49:54.676Z,0.10
2022-08-22T13:52:38.027Z,0.10
2022-08-22T13:55:27.651Z,0.10
2022-08-22T13:58:01.575Z,0.10
2022-08-22T14:00:57.274Z,0.10
2022-08-22T14:03:37.856Z,0.10
2022-08-22T14:06:37.403Z,0.10
2022-08-22T14:09:45.266Z,0.10
2022-08-22T14:12:50.096Z,0.10
2022-08-22T14:15:45.371Z,0.10
2022-08-22T14:18:46.059Z,0.20
2022-08-22T14:21:40.732Z,0.10
2022-08-22T14:24:13.383Z,0.10
2022-08-22T14:26:54.274Z,0.10
2022-08-22T14:29:31.758Z,0.10
2022-08-22T14:32:04.575Z,0.13
2022-08-22T14:34:35.394Z,0.10
2022-08-22T14:37:13.024Z,0.10
2022-08-22T14:39:53.064Z,0.10
2022-08-22T14:42:25.423Z,0.10
2022-08-22T14:45:06.404Z,0.10
2022-08-22T14:47:55.227Z,0.10
2022-08-22T14:50:49.700Z,0.10
2022-08-22T14:53:19.966Z,0.10
2022-08-22T14:55:59.686Z,0.10
2022-08-22T14:58:28.544Z,0.13
2022-08-22T15:00:57.599Z,0.10
2022-08-22T15:03:34.147Z,0.13
2022-08-22T15:06:16.935Z,0.10
2022-08-22T15:08:50.490Z,0.10
2022-08-22T15:11:27.282Z,0.10
2022-08-22T15:14:04.063Z,0.10
2022-08-22T15:16:34.741Z,0.17
2022-08-22T15:19:03.270Z,0.10
2022-08-22T15:21:32.946Z,0.17
2022-08-22T15:24:13.412Z,0.20
2022-08-22T15:26:55.428Z,0.20
2022-08-22T15:29:24.287Z,0.10
2022-08-22T15:31:54.337Z,0.10
2022-08-22T15:34:41.919Z,0.10
2022-08-22T15:37:18.138Z,0.10
2022-08-22T15:40:11.957Z,0.10
2022-08-22T15:42:51.172Z,0.10
2022-08-22T15:45:38.265Z,0.10
2022-08-22T15:48:13.489Z,0.10
2022-08-22T15:50:56.620Z,0.10
2022-08-22T15:53:45.439Z,0.10
2022-08-22T15:56:23.381Z,0.10
2022-08-22T15:59:13.316Z,0.10
2022-08-22T16:01:51.671Z,0.20
2022-08-22T16:04:32.959Z,0.10
2022-08-22T16:07:02.049Z,0.10
2022-08-22T16:09:38.307Z,0.10
2022-08-22T16:12:10.859Z,0.10
2022-08-22T16:14:37.652Z,0.13
2022-08-22T16:17:08.189Z,0.13
2022-08-22T16:19:36.057Z,0.20
2022-08-22T16:22:07.036Z,0.10
2022-08-22T16:24:58.991Z,0.10
2022-08-22T16:27:27.202Z,0.20
2022-08-22T16:30:08.697Z,0.10
2022-08-22T16:32:36.128Z,0.20
2022-08-22T16:35:03.134Z,0.20
2022-08-22T16:37:42.921Z,0.20
2022-08-22T16:40:15.116Z,0.20
2022-08-22T16:42:51.213Z,0.13
2022-08-22T16:45:34.281Z,0.20
2022-08-22T16:48:25.338Z,0.10
2022-08-22T16:51:08.374Z,0.10
2022-08-22T16:53:38.244Z,0.10
2022-08-22T16:56:32.436Z,0.20
2022-08-22T16:59:22.401Z,0.10
2022-08-22T17:02:09.306Z,0.10
2022-08-22T17:04:54.254Z,0.10
2022-08-22T17:07:51.587Z,0.20
2022-08-22T17:10:48.104Z,0.10
2022-08-22T17:13:48.695Z,0.10
2022-08-22T17:16:22.164Z,0.10
2022-08-22T17:18:48.944Z,0.10
2022-08-22T17:21:26.156Z,0.10
2022-08-22T17:24:33.583Z,0.10
2022-08-22T17:27:06.921Z,0.10
2022-08-22T17:30:09.201Z,0.10
2022-08-22T17:33:03.629Z,0.10
2022-08-22T17:36:26.669Z,0.10
2022-08-22T17:39:36.112Z,0.10
2022-08-22T17:42:05.678Z,0.10
2022-08-22T17:44:38.036Z,0.10
2022-08-22T17:47:16.105Z,0.10
2022-08-22T17:49:45.246Z,0.00
2022-08-22T17:52:24.111Z,0.00
2022-08-22T17:54:53.608Z,0.00
2022-08-22T17:57:29.501Z,0.10
2022-08-22T18:00:02.859Z,0.00
2022-08-22T18:02:40.923Z,0.00
2022-08-22T18:05:16.319Z,0.00
2022-08-22T18:11:20.757Z,0.00
2022-08-22T18:13:49.486Z,0.00
2022-08-22T18:16:30.411Z,0.00
2022-08-22T18:19:19.013Z,0.00
2022-08-22T18:21:54.593Z,0.00
2022-08-22T18:24:34.791Z,0.00
2022-08-22T18:27:04.583Z,0.00
2022-08-22T18:29:46.802Z,0.00
2022-08-22T18:32:22.829Z,0.00
2022-08-22T18:35:34.713Z,0.00
2022-08-22T18:38:19.951Z,0.00
2022-08-22T18:40:56.719Z,0.00
2022-08-22T18:43:46.370Z,0.00
2022-08-22T18:46:37.354Z,0.00
2022-08-22T18:49:40.343Z,0.00
2022-08-22T18:52:10.760Z,0.00
2022-08-22T18:55:15.808Z,0.00
2022-08-22T18:58:05.428Z,0.00
2022-08-22T19:00:51.248Z,0.00
2022-08-22T19:03:41.843Z,0.00
2022-08-22T19:06:42.901Z,0.00
2022-08-22T19:09:22.279Z,0.00
2022-08-22T19:11:56.660Z,0.00
2022-08-22T19:14:41.047Z,0.00
2022-08-22T19:17:45.318Z,0.00
2022-08-22T19:20:57.343Z,0.00
2022-08-22T19:23:36.681Z,0.00
2022-08-22T19:26:51.330Z,0.00
2022-08-22T19:29:18.292Z,0.00
2022-08-22T19:31:50.342Z,0.00
2022-08-22T19:34:27.050Z,0.00
2022-08-22T19:37:33.179Z,0.00
2022-08-22T19:40:07.602Z,0.00
2022-08-22T19:42:38.021Z,0.00
2022-08-22T19:45:17.866Z,0.00
2022-08-22T19:48:14.623Z,0.00
2022-08-22T19:50:43.019Z,0.00
2022-08-22T19:53:32.462Z,0.00
2022-08-22T19:56:05.246Z,0.00
2022-08-22T19:59:09.701Z,0.00
2022-08-22T20:01:56.208Z,0.00
2022-08-22T20:04:25.946Z,0.00
2022-08-22T20:07:14.451Z,0.00
2022-08-22T20:10:00.349Z,0.00
2022-08-22T20:12:47.554Z,0.00
2022-08-22T20:15:22.386Z,0.00
2022-08-22T20:20:56.630Z,0.00
2022-08-22T20:23:30.923Z,0.00
2022-08-22T20:25:58.835Z,0.00
2022-08-22T20:28:35.541Z,0.00
2022-08-22T20:31:06.638Z,0.00
2022-08-22T20:33:39.753Z,0.00
2022-08-22T20:36:27.405Z,0.00
2022-08-22T20:39:02.986Z,0.00
2022-08-22T20:41:42.596Z,0.00
2022-08-22T20:44:21.710Z,0.00
2022-08-22T20:46:53.387Z,0.00
2022-08-22T20:49:24.111Z,0.00
2022-08-22T20:52:26.196Z,0.00
2022-08-22T20:55:11.535Z,0.00
2022-08-22T20:57:57.215Z,0.00
2022-08-22T21:00:32.059Z,0.00
2022-08-22T21:03:11.344Z,0.00
2022-08-22T21:05:44.100Z,0.00
2022-08-22T21:08:24.215Z,0.00
2022-08-22T21:11:17.563Z,0.00
2022-08-22T21:13:44.862Z,0.00
2022-08-22T21:16:20.281Z,0.00
2022-08-22T21:18:54.981Z,0.00
2022-08-22T21:21:25.279Z,0.00
2022-08-22T21:24:00.792Z,0.00
2022-08-22T21:26:48.982Z,0.00
2022-08-22T21:29:15.802Z,0.00
2022-08-22T21:31:42.651Z,0.00
2022-08-22T21:34:37.110Z,0.00
2022-08-22T21:37:18.158Z,0.00
2022-08-22T21:39:52.576Z,0.00
2022-08-22T21:42:25.950Z,0.00
2022-08-22T21:45:33.773Z,0.00
2022-08-22T21:48:01.906Z,0.00
2022-08-22T21:50:38.142Z,0.00
2022-08-22T21:53:27.812Z,0.00
2022-08-22T21:56:15.387Z,0.00
2022-08-22T21:58:43.062Z,0.00
2022-08-22T22:01:27.377Z,0.00
2022-08-22T22:03:55.189Z,0.00
2022-08-22T22:06:22.111Z,0.00
2022-08-22T22:08:49.084Z,0.00
2022-08-22T22:11:17.028Z,0.00
2022-08-22T22:13:44.339Z,0.00
2022-08-22T22:16:14.841Z,0.00
2022-08-22T22:18:41.708Z,0.00
2022-08-22T22:21:08.965Z,0.00
2022-08-22T22:23:35.871Z,0.00
2022-08-22T22:26:05.325Z,0.00
2022-08-22T22:28:41.053Z,0.00
2022-08-22T22:31:08.830Z,0.00
2022-08-22T22:33:38.340Z,0.00
2022-08-22T22:36:13.270Z,0.00
2022-08-22T22:38:41.775Z,0.00
2022-08-22T22:41:08.635Z,0.00
2022-08-22T22:43:35.847Z,0.00
2022-08-22T22:46:02.892Z,0.00
2022-08-22T22:48:29.811Z,0.00
2022-08-22T22:50:56.728Z,0.00
2022-08-22T22:53:38.171Z,0.00
2022-08-22T22:56:07.675Z,0.00
2022-08-22T22:58:37.619Z,0.00
2022-08-22T23:01:13.356Z,0.00
2022-08-22T23:03:40.511Z,0.00
2022-08-22T23:06:16.517Z,0.00
2022-08-22T23:08:43.446Z,0.00
2022-08-22T23:11:36.809Z,0.00
2022-08-22T23:14:03.829Z,0.00
2022-08-22T23:16:36.489Z,0.00
2022-08-22T23:19:08.886Z,0.00
2022-08-22T23:21:35.802Z,0.00
2022-08-22T23:24:02.869Z,0.00
2022-08-22T23:26:29.892Z,0.00
2022-08-22T23:28:57.821Z,0.00
2022-08-22T23:31:32.338Z,0.00
2022-08-22T23:34:05.938Z,0.00
2022-08-22T23:36:33.235Z,0.00
2022-08-22T23:39:00.270Z,0.00
2022-08-22T23:41:27.266Z,0.00
2022-08-22T23:43:55.541Z,0.00
2022-08-22T23:46:24.866Z,0.00
2022-08-22T23:48:52.225Z,0.00
2022-08-22T23:51:22.894Z,0.00
2022-08-22T23:53:51.470Z,0.00
2022-08-22T23:56:27.693Z,0.00
2022-08-22T23:58:55.077Z,0.00
